createdAt,value
2022-12-18T00:00:10.508Z,10.90
2022-12-18T00:05:13.360Z,11.70
2022-12-18T00:10:16.397Z,11.23
2022-12-18T00:15:19.475Z,11.07
2022-12-18T00:20:26.640Z,10.37
2022-12-18T00:25:29.586Z,10.20
2022-12-18T00:30:32.434Z,11.30
2022-12-18T00:35:35.387Z,10.03
2022-12-18T00:40:38.322Z,10.50
2022-12-18T00:45:42.206Z,10.50
2022-12-18T00:50:45.232Z,9.70
2022-12-18T00:55:48.462Z,9.90
2022-12-18T01:00:51.304Z,11.20
2022-12-18T01:05:54.284Z,10.73
2022-12-18T01:10:57.196Z,11.17
2022-12-18T01:16:00.697Z,9.83
2022-12-18T01:21:12.948Z,9.57
2022-12-18T01:26:17.442Z,10.33
2022-12-18T01:31:24.350Z,10.97
2022-12-18T01:36:30.832Z,10.60
2022-12-18T01:41:54.425Z,10.10
2022-12-18T01:46:57.383Z,9.67
2022-12-18T01:52:00.407Z,9.27
2022-12-18T01:57:03.541Z,9.33
2022-12-18T02:02:07.344Z,9.57
2022-12-18T02:08:13.552Z,9.80
2022-12-18T02:14:23.773Z,9.93
2022-12-18T02:19:30.216Z,9.20
2022-12-18T02:25:14.126Z,9.60
2022-12-18T02:30:18.398Z,9.30
2022-12-18T02:35:30.069Z,9.43
2022-12-18T02:40:33.883Z,11.17
2022-12-18T02:45:36.957Z,9.53
2022-12-18T02:50:50.205Z,9.83
2022-12-18T02:56:25.400Z,9.37
2022-12-18T03:02:19.512Z,9.33
2022-12-18T03:07:37.769Z,7.77
2022-12-18T03:12:55.601Z,9.63
2022-12-18T03:18:23.900Z,9.57
2022-12-18T03:23:35.956Z,9.27
2022-12-18T03:28:46.986Z,6.55
2022-12-18T03:33:57.738Z,8.30
2022-12-18T03:39:00.740Z,8.73
2022-12-18T03:44:34.761Z,7.97
2022-12-18T03:50:12.282Z,9.40
2022-12-18T03:55:16.332Z,8.47
2022-12-18T04:00:20.736Z,7.63
2022-12-18T04:05:27.185Z,8.43
2022-12-18T04:10:30.662Z,8.43
2022-12-18T04:15:37.553Z,8.17
2022-12-18T04:20:40.577Z,9.13
2022-12-18T04:25:43.578Z,9.23
2022-12-18T04:30:49.223Z,10.43
2022-12-18T04:35:52.264Z,9.93
2022-12-18T04:40:55.101Z,7.17
2022-12-18T04:46:09.362Z,7.63
2022-12-18T04:51:12.398Z,10.87
2022-12-18T04:56:16.725Z,10.37
2022-12-18T05:01:20.521Z,10.43
2022-12-18T05:06:23.431Z,9.23
2022-12-18T05:11:26.302Z,8.27
2022-12-18T05:16:29.334Z,8.97
2022-12-18T05:21:32.373Z,8.60
2022-12-18T05:26:35.802Z,8.37
2022-12-18T05:31:39.810Z,8.37
2022-12-18T05:36:42.981Z,7.07
2022-12-18T05:41:46.184Z,7.33
2022-12-18T05:46:49.879Z,8.70
2022-12-18T05:51:52.759Z,9.03
2022-12-18T05:56:55.535Z,11.20
2022-12-18T06:01:58.651Z,9.23
2022-12-18T06:07:04.140Z,9.03
2022-12-18T06:12:07.472Z,9.57
2022-12-18T06:17:10.390Z,10.50
2022-12-18T06:22:13.352Z,9.40
2022-12-18T06:27:16.214Z,7.57
2022-12-18T06:44:00.314Z,11.00
2022-12-18T06:49:03.939Z,11.33
2022-12-18T06:54:06.873Z,9.17
2022-12-18T06:59:09.753Z,9.97
2022-12-18T07:04:13.074Z,8.70
2022-12-18T07:09:15.993Z,9.00
2022-12-18T07:14:19.752Z,10.10
2022-12-18T07:19:25.663Z,14.30
2022-12-18T07:24:29.439Z,14.57
2022-12-18T07:29:32.490Z,13.70
2022-12-18T07:34:35.853Z,13.77
2022-12-18T07:39:39.579Z,10.57
2022-12-18T07:44:42.547Z,11.90
2022-12-18T07:49:45.334Z,11.43
2022-12-18T07:54:50.921Z,12.47
2022-12-18T07:59:53.868Z,21.60
2022-12-18T08:04:56.723Z,16.90
2022-12-18T08:09:59.559Z,17.43
2022-12-18T08:15:02.735Z,14.53
2022-12-18T08:20:06.357Z,12.37
2022-12-18T08:25:10.202Z,12.47
2022-12-18T08:30:13.636Z,12.60
2022-12-18T08:35:18.811Z,12.43
2022-12-18T08:40:21.747Z,13.37
2022-12-18T08:45:25.807Z,15.23
2022-12-18T08:50:29.210Z,15.87
2022-12-18T08:55:32.271Z,15.30
2022-12-18T09:00:35.193Z,16.27
2022-12-18T09:05:38.079Z,16.53
2022-12-18T09:10:49.699Z,16.20
2022-12-18T09:15:55.432Z,16.98
2022-12-18T09:20:58.319Z,18.67
2022-12-18T09:26:01.438Z,17.53
2022-12-18T09:31:09.884Z,14.83
2022-12-18T09:36:17.694Z,18.13
2022-12-18T09:41:48.402Z,16.00
2022-12-18T09:47:20.058Z,17.73
2022-12-18T09:52:41.291Z,16.07
2022-12-18T09:57:53.379Z,15.77
2022-12-18T10:03:15.263Z,15.90
2022-12-18T10:09:21.669Z,15.20
2022-12-18T10:14:57.434Z,17.23
2022-12-18T10:20:17.104Z,16.27
2022-12-18T10:25:41.072Z,17.27
2022-12-18T10:30:44.657Z,18.23
2022-12-18T10:35:51.403Z,18.10
2022-12-18T10:40:58.566Z,16.20
2022-12-18T10:46:09.814Z,16.90
2022-12-18T10:51:31.657Z,15.00
2022-12-18T10:56:37.818Z,14.93
2022-12-18T11:01:58.836Z,15.60
2022-12-18T11:07:09.061Z,17.67
2022-12-18T11:12:11.881Z,14.83
2022-12-18T11:17:26.715Z,16.17
2022-12-18T11:22:36.349Z,17.23
2022-12-18T11:27:41.210Z,13.27
2022-12-18T11:33:02.248Z,13.27
2022-12-18T11:38:36.168Z,14.70
2022-12-18T11:43:47.319Z,14.33
2022-12-18T11:49:36.033Z,18.58
2022-12-18T11:54:39.719Z,14.40
2022-12-18T12:00:12.805Z,13.40
2022-12-18T12:05:49.846Z,12.50
2022-12-18T12:11:20.539Z,12.27
2022-12-18T12:16:33.775Z,12.13
2022-12-18T12:22:05.718Z,15.17
2022-12-18T12:28:05.844Z,13.02
2022-12-18T12:33:32.543Z,15.53
2022-12-18T12:38:52.264Z,10.93
2022-12-18T12:44:00.304Z,11.10
2022-12-18T12:49:11.030Z,9.63
2022-12-18T12:54:25.850Z,12.32
2022-12-18T13:00:04.178Z,9.63
2022-12-18T13:05:35.382Z,11.73
2022-12-18T13:10:43.189Z,10.20
2022-12-18T13:16:06.568Z,13.83
2022-12-18T13:21:28.076Z,11.03
2022-12-18T13:26:32.970Z,15.57
2022-12-18T13:31:42.201Z,8.40
2022-12-18T13:36:47.298Z,10.67
2022-12-18T13:42:32.394Z,10.63
2022-12-18T13:47:39.032Z,7.87
2022-12-18T13:52:44.645Z,9.80
2022-12-18T13:57:47.560Z,12.73
2022-12-18T14:02:51.987Z,14.00
2022-12-18T14:08:16.213Z,13.37
2022-12-18T14:13:34.978Z,14.83
2022-12-18T14:18:45.335Z,14.77
2022-12-18T14:23:48.461Z,12.60
2022-12-18T14:28:51.998Z,13.40
2022-12-18T14:33:55.527Z,17.63
2022-12-18T14:39:00.353Z,15.97
2022-12-18T14:44:09.427Z,16.37
2022-12-18T14:49:35.217Z,21.33
2022-12-18T14:54:39.333Z,18.87
2022-12-18T14:59:42.442Z,24.33
2022-12-18T15:04:46.023Z,26.73
2022-12-18T15:10:14.116Z,19.20
2022-12-18T15:15:38.325Z,20.97
2022-12-18T15:20:50.294Z,22.10
2022-12-18T15:31:14.372Z,21.63
2022-12-18T15:36:21.337Z,25.90
2022-12-18T15:41:32.868Z,17.50
2022-12-18T15:46:37.848Z,17.73
2022-12-18T15:51:41.668Z,19.67
2022-12-18T15:57:02.885Z,19.03
2022-12-18T16:02:18.127Z,22.13
2022-12-18T16:07:24.877Z,19.47
2022-12-18T16:12:28.628Z,18.27
2022-12-18T16:17:32.013Z,22.67
2022-12-18T16:22:34.827Z,21.63
2022-12-18T16:27:37.712Z,19.83
2022-12-18T16:32:40.585Z,16.67
2022-12-18T16:37:44.298Z,18.17
2022-12-18T16:42:47.721Z,22.40
2022-12-18T16:47:50.536Z,19.77
2022-12-18T16:52:53.436Z,20.10
2022-12-18T16:57:57.413Z,18.83
2022-12-18T17:03:00.452Z,18.33
2022-12-18T17:08:03.982Z,17.27
2022-12-18T17:13:06.864Z,18.13
2022-12-18T17:18:09.840Z,16.63
2022-12-18T17:23:12.676Z,16.57
2022-12-18T17:28:15.564Z,18.53
2022-12-18T17:33:18.781Z,19.73
2022-12-18T17:38:21.674Z,14.93
2022-12-18T17:43:24.565Z,17.93
2022-12-18T17:48:27.424Z,19.40
2022-12-18T17:53:31.411Z,18.00
2022-12-18T17:58:37.826Z,19.77
2022-12-18T18:03:42.489Z,19.37
2022-12-18T18:08:45.837Z,23.17
2022-12-18T18:14:04.656Z,20.90
2022-12-18T18:19:12.386Z,18.43
2022-12-18T18:24:20.170Z,23.87
2022-12-18T18:29:26.911Z,24.80
2022-12-18T18:34:33.045Z,21.33
2022-12-18T18:39:36.581Z,17.97
2022-12-18T18:44:41.369Z,22.97
2022-12-18T18:49:47.433Z,19.10
2022-12-18T18:55:11.469Z,16.37
2022-12-18T19:00:16.488Z,16.47
2022-12-18T19:05:19.370Z,16.10
2022-12-18T19:10:22.208Z,15.13
2022-12-18T19:15:25.178Z,12.20
2022-12-18T19:20:28.551Z,13.07
2022-12-18T19:25:40.697Z,16.87
2022-12-18T19:30:45.928Z,15.73
2022-12-18T19:35:49.365Z,19.20
2022-12-18T19:40:52.567Z,22.97
2022-12-18T19:45:56.347Z,16.27
2022-12-18T19:50:59.286Z,18.90
2022-12-18T19:56:11.771Z,15.40
2022-12-18T20:01:16.918Z,16.13
2022-12-18T20:06:36.298Z,18.63
2022-12-18T20:11:41.993Z,16.00
2022-12-18T20:16:45.198Z,14.83
2022-12-18T20:21:48.420Z,13.97
2022-12-18T20:26:51.204Z,13.80
2022-12-18T20:31:54.269Z,19.07
2022-12-18T20:36:57.133Z,22.70
2022-12-18T20:42:00.871Z,36.57
2022-12-18T20:47:05.747Z,32.30
2022-12-18T20:52:11.840Z,31.67
2022-12-18T20:57:15.247Z,22.87
2022-12-18T21:02:21.286Z,24.77
2022-12-18T21:07:24.408Z,23.83
2022-12-18T21:12:42.737Z,22.67
2022-12-18T21:17:53.914Z,22.03
2022-12-18T21:22:57.721Z,20.03
2022-12-18T21:28:07.175Z,20.90
2022-12-18T21:33:10.992Z,21.07
2022-12-18T21:38:14.295Z,21.50
2022-12-18T21:43:35.383Z,17.47
2022-12-18T21:48:43.350Z,19.57
2022-12-18T21:53:46.276Z,18.77
2022-12-18T21:58:56.800Z,18.43
2022-12-18T22:04:00.353Z,19.83
2022-12-18T22:09:04.532Z,21.37
2022-12-18T22:14:07.879Z,21.70
2022-12-18T22:19:12.524Z,19.63
2022-12-18T22:24:22.282Z,18.90
2022-12-18T22:29:44.684Z,20.00
2022-12-18T22:34:47.559Z,14.03
2022-12-18T22:39:50.460Z,16.50
2022-12-18T22:44:53.409Z,17.93
2022-12-18T22:49:56.317Z,15.37
2022-12-18T22:54:59.207Z,15.87
2022-12-18T23:00:02.731Z,17.00
2022-12-18T23:05:06.866Z,15.50
2022-12-18T23:10:10.070Z,15.90
2022-12-18T23:15:12.905Z,17.47
2022-12-18T23:20:17.651Z,16.07
2022-12-18T23:25:20.576Z,15.57
2022-12-18T23:30:23.940Z,16.67
2022-12-18T23:35:26.880Z,18.30
2022-12-18T23:40:30.209Z,20.30
2022-12-18T23:45:38.665Z,17.33
2022-12-18T23:50:41.500Z,13.40
2022-12-18T23:55:45.579Z,15.73
